sensor_id;sensor_type;location;lat;lon;timestamp;temperature;humidity
18218;DHT22;9234;49.344;11.120;2023-07-16T00:02:18;21.40;99.90
18218;DHT22;9234;49.344;11.120;2023-07-16T00:04:47;21.40;99.90
18218;DHT22;9234;49.344;11.120;2023-07-16T00:07:15;21.40;99.90
18218;DHT22;9234;49.344;11.120;2023-07-16T00:09:45;21.50;99.90
18218;DHT22;9234;49.344;11.120;2023-07-16T00:12:13;21.50;99.90
18218;DHT22;9234;49.344;11.120;2023-07-16T00:14:41;21.50;99.90
18218;DHT22;9234;49.344;11.120;2023-07-16T00:17:12;21.50;99.90
18218;DHT22;9234;49.344;11.120;2023-07-16T00:19:41;21.50;99.90
18218;DHT22;9234;49.344;11.120;2023-07-16T00:22:09;21.40;99.90
18218;DHT22;9234;49.344;11.120;2023-07-16T00:24:37;21.40;99.90
18218;DHT22;9234;49.344;11.120;2023-07-16T00:27:06;21.40;99.90
18218;DHT22;9234;49.344;11.120;2023-07-16T00:29:35;21.40;99.90
18218;DHT22;9234;49.344;11.120;2023-07-16T00:32:04;21.40;99.90
18218;DHT22;9234;49.344;11.120;2023-07-16T00:34:32;21.40;99.90
18218;DHT22;9234;49.344;11.120;2023-07-16T00:37:01;21.40;99.90
18218;DHT22;9234;49.344;11.120;2023-07-16T00:39:30;21.40;99.90
18218;DHT22;9234;49.344;11.120;2023-07-16T00:41:58;21.40;99.90
18218;DHT22;9234;49.344;11.120;2023-07-16T00:44:28;21.40;99.90
18218;DHT22;9234;49.344;11.120;2023-07-16T00:46:57;21.30;99.90
18218;DHT22;9234;49.344;11.120;2023-07-16T00:49:25;21.30;99.90
18218;DHT22;9234;49.344;11.120;2023-07-16T00:51:56;21.30;99.90
18218;DHT22;9234;49.344;11.120;2023-07-16T00:54:28;21.30;99.90
18218;DHT22;9234;49.344;11.120;2023-07-16T00:56:58;21.30;99.90
18218;DHT22;9234;49.344;11.120;2023-07-16T00:59:28;21.30;99.90
18218;DHT22;9234;49.344;11.120;2023-07-16T01:01:58;21.30;99.90
18218;DHT22;9234;49.344;11.120;2023-07-16T01:04:26;21.30;99.90
18218;DHT22;9234;49.344;11.120;2023-07-16T01:06:57;21.20;99.90
18218;DHT22;9234;49.344;11.120;2023-07-16T01:09:33;21.20;99.90
18218;DHT22;9234;49.344;11.120;2023-07-16T01:12:05;21.20;99.90
18218;DHT22;9234;49.344;11.120;2023-07-16T01:14:36;21.10;99.90
18218;DHT22;9234;49.344;11.120;2023-07-16T01:17:07;21.10;99.90
18218;DHT22;9234;49.344;11.120;2023-07-16T01:19:35;21.10;99.90
18218;DHT22;9234;49.344;11.120;2023-07-16T01:22:16;21.10;99.90
18218;DHT22;9234;49.344;11.120;2023-07-16T01:25:05;21.10;99.90
18218;DHT22;9234;49.344;11.120;2023-07-16T01:28:05;21.10;99.90
18218;DHT22;9234;49.344;11.120;2023-07-16T01:30:41;21.00;99.90
18218;DHT22;9234;49.344;11.120;2023-07-16T01:33:12;20.90;99.90
18218;DHT22;9234;49.344;11.120;2023-07-16T01:35:43;20.90;99.90
18218;DHT22;9234;49.344;11.120;2023-07-16T01:38:13;20.90;99.90
18218;DHT22;9234;49.344;11.120;2023-07-16T01:40:44;20.80;99.90
18218;DHT22;9234;49.344;11.120;2023-07-16T01:43:12;20.80;99.90
18218;DHT22;9234;49.344;11.120;2023-07-16T01:45:42;20.80;99.90
18218;DHT22;9234;49.344;11.120;2023-07-16T01:48:16;20.70;99.90
18218;DHT22;9234;49.344;11.120;2023-07-16T01:50:55;20.70;99.90
18218;DHT22;9234;49.344;11.120;2023-07-16T01:53:24;20.70;99.90
18218;DHT22;9234;49.344;11.120;2023-07-16T01:55:52;20.70;99.90
18218;DHT22;9234;49.344;11.120;2023-07-16T01:58:20;20.70;99.90
18218;DHT22;9234;49.344;11.120;2023-07-16T02:00:50;20.70;99.90
18218;DHT22;9234;49.344;11.120;2023-07-16T02:03:20;20.70;99.90
18218;DHT22;9234;49.344;11.120;2023-07-16T02:05:48;20.60;99.90
18218;DHT22;9234;49.344;11.120;2023-07-16T02:08:17;20.60;99.90
18218;DHT22;9234;49.344;11.120;2023-07-16T02:10:47;20.60;99.90
18218;DHT22;9234;49.344;11.120;2023-07-16T02:13:16;20.50;99.90
18218;DHT22;9234;49.344;11.120;2023-07-16T02:15:44;20.50;99.90
18218;DHT22;9234;49.344;11.120;2023-07-16T02:18:15;20.50;99.90
18218;DHT22;9234;49.344;11.120;2023-07-16T02:20:44;20.50;99.90
18218;DHT22;9234;49.344;11.120;2023-07-16T02:23:12;20.50;99.90
18218;DHT22;9234;49.344;11.120;2023-07-16T02:25:40;20.50;99.90
18218;DHT22;9234;49.344;11.120;2023-07-16T02:28:09;20.50;99.90
18218;DHT22;9234;49.344;11.120;2023-07-16T02:30:37;20.50;99.90
18218;DHT22;9234;49.344;11.120;2023-07-16T02:33:08;20.50;99.90
18218;DHT22;9234;49.344;11.120;2023-07-16T02:35:37;20.50;99.90
18218;DHT22;9234;49.344;11.120;2023-07-16T02:38:06;20.50;99.90
18218;DHT22;9234;49.344;11.120;2023-07-16T02:40:34;20.40;99.90
18218;DHT22;9234;49.344;11.120;2023-07-16T02:43:04;20.40;99.90
18218;DHT22;9234;49.344;11.120;2023-07-16T02:45:33;20.40;99.90
18218;DHT22;9234;49.344;11.120;2023-07-16T02:48:02;20.40;99.90
18218;DHT22;9234;49.344;11.120;2023-07-16T02:50:33;20.40;99.90
18218;DHT22;9234;49.344;11.120;2023-07-16T02:53:04;20.40;99.90
18218;DHT22;9234;49.344;11.120;2023-07-16T02:55:34;20.40;99.90
18218;DHT22;9234;49.344;11.120;2023-07-16T02:58:03;20.40;99.90
18218;DHT22;9234;49.344;11.120;2023-07-16T03:00:33;20.30;99.90
18218;DHT22;9234;49.344;11.120;2023-07-16T03:03:01;20.40;99.90
18218;DHT22;9234;49.344;11.120;2023-07-16T03:05:30;20.40;99.90
18218;DHT22;9234;49.344;11.120;2023-07-16T03:07:58;20.40;99.90
18218;DHT22;9234;49.344;11.120;2023-07-16T03:10:28;20.40;99.90
18218;DHT22;9234;49.344;11.120;2023-07-16T03:12:56;20.30;99.90
18218;DHT22;9234;49.344;11.120;2023-07-16T03:15:25;20.30;99.90
18218;DHT22;9234;49.344;11.120;2023-07-16T03:17:54;20.30;99.90
18218;DHT22;9234;49.344;11.120;2023-07-16T03:20:22;20.30;99.90
18218;DHT22;9234;49.344;11.120;2023-07-16T03:22:51;20.30;99.90
18218;DHT22;9234;49.344;11.120;2023-07-16T03:25:19;20.30;99.90
18218;DHT22;9234;49.344;11.120;2023-07-16T03:27:48;20.20;99.90
18218;DHT22;9234;49.344;11.120;2023-07-16T03:30:17;20.20;99.90
18218;DHT22;9234;49.344;11.120;2023-07-16T03:32:45;20.20;99.90
18218;DHT22;9234;49.344;11.120;2023-07-16T03:35:22;20.20;99.90
18218;DHT22;9234;49.344;11.120;2023-07-16T03:37:52;20.20;99.90
18218;DHT22;9234;49.344;11.120;2023-07-16T03:40:24;20.20;99.90
18218;DHT22;9234;49.344;11.120;2023-07-16T03:42:55;20.10;99.90
18218;DHT22;9234;49.344;11.120;2023-07-16T03:45:24;20.10;99.90
18218;DHT22;9234;49.344;11.120;2023-07-16T03:47:52;20.10;99.90
18218;DHT22;9234;49.344;11.120;2023-07-16T03:50:21;20.10;99.90
18218;DHT22;9234;49.344;11.120;2023-07-16T03:52:49;20.10;99.90
18218;DHT22;9234;49.344;11.120;2023-07-16T03:55:18;20.10;99.90
18218;DHT22;9234;49.344;11.120;2023-07-16T03:57:46;20.10;99.90
18218;DHT22;9234;49.344;11.120;2023-07-16T04:00:16;20.00;99.90
18218;DHT22;9234;49.344;11.120;2023-07-16T04:02:48;20.00;99.90
18218;DHT22;9234;49.344;11.120;2023-07-16T04:05:17;20.00;99.90
18218;DHT22;9234;49.344;11.120;2023-07-16T04:07:50;20.00;99.90
18218;DHT22;9234;49.344;11.120;2023-07-16T04:10:18;20.00;99.90
18218;DHT22;9234;49.344;11.120;2023-07-16T04:12:46;20.00;99.90
18218;DHT22;9234;49.344;11.120;2023-07-16T04:15:16;19.90;99.90
18218;DHT22;9234;49.344;11.120;2023-07-16T04:17:44;19.90;99.90
18218;DHT22;9234;49.344;11.120;2023-07-16T04:20:13;19.90;99.90
18218;DHT22;9234;49.344;11.120;2023-07-16T04:22:41;19.80;99.90
18218;DHT22;9234;49.344;11.120;2023-07-16T04:25:10;19.80;99.90
18218;DHT22;9234;49.344;11.120;2023-07-16T04:27:38;19.70;99.90
18218;DHT22;9234;49.344;11.120;2023-07-16T04:30:08;19.60;99.90
18218;DHT22;9234;49.344;11.120;2023-07-16T04:32:39;19.50;99.90
18218;DHT22;9234;49.344;11.120;2023-07-16T04:35:08;19.50;99.90
18218;DHT22;9234;49.344;11.120;2023-07-16T04:37:36;19.40;99.90
18218;DHT22;9234;49.344;11.120;2023-07-16T04:40:06;19.40;99.90
18218;DHT22;9234;49.344;11.120;2023-07-16T04:42:35;19.30;99.90
18218;DHT22;9234;49.344;11.120;2023-07-16T04:45:05;19.30;99.90
18218;DHT22;9234;49.344;11.120;2023-07-16T04:47:33;19.20;99.90
18218;DHT22;9234;49.344;11.120;2023-07-16T04:50:04;19.10;99.90
18218;DHT22;9234;49.344;11.120;2023-07-16T04:52:33;19.10;99.90
18218;DHT22;9234;49.344;11.120;2023-07-16T04:55:02;19.00;99.90
18218;DHT22;9234;49.344;11.120;2023-07-16T04:57:32;19.00;99.90
18218;DHT22;9234;49.344;11.120;2023-07-16T05:00:01;18.90;99.90
18218;DHT22;9234;49.344;11.120;2023-07-16T05:02:30;18.90;99.90
18218;DHT22;9234;49.344;11.120;2023-07-16T05:04:58;18.90;99.90
18218;DHT22;9234;49.344;11.120;2023-07-16T05:07:28;18.80;99.90
18218;DHT22;9234;49.344;11.120;2023-07-16T05:09:57;18.80;99.90
18218;DHT22;9234;49.344;11.120;2023-07-16T05:12:25;18.80;99.90
18218;DHT22;9234;49.344;11.120;2023-07-16T05:14:53;18.90;99.90
18218;DHT22;9234;49.344;11.120;2023-07-16T05:17:22;18.90;99.90
18218;DHT22;9234;49.344;11.120;2023-07-16T05:19:50;18.90;99.90
18218;DHT22;9234;49.344;11.120;2023-07-16T05:22:18;18.90;99.90
18218;DHT22;9234;49.344;11.120;2023-07-16T05:24:48;19.00;99.90
18218;DHT22;9234;49.344;11.120;2023-07-16T05:27:19;19.00;99.90
18218;DHT22;9234;49.344;11.120;2023-07-16T05:29:47;19.00;99.90
18218;DHT22;9234;49.344;11.120;2023-07-16T05:32:15;19.00;99.90
18218;DHT22;9234;49.344;11.120;2023-07-16T05:34:44;19.00;99.90
18218;DHT22;9234;49.344;11.120;2023-07-16T05:37:12;19.00;99.90
18218;DHT22;9234;49.344;11.120;2023-07-16T05:39:41;18.90;99.90
18218;DHT22;9234;49.344;11.120;2023-07-16T05:42:11;19.00;99.90
18218;DHT22;9234;49.344;11.120;2023-07-16T05:44:48;18.90;99.90
18218;DHT22;9234;49.344;11.120;2023-07-16T05:47:16;18.90;99.90
18218;DHT22;9234;49.344;11.120;2023-07-16T05:49:45;18.90;99.90
18218;DHT22;9234;49.344;11.120;2023-07-16T05:52:13;18.90;99.90
18218;DHT22;9234;49.344;11.120;2023-07-16T05:54:43;19.00;99.90
18218;DHT22;9234;49.344;11.120;2023-07-16T05:57:13;18.90;99.90
18218;DHT22;9234;49.344;11.120;2023-07-16T05:59:41;19.00;99.90
18218;DHT22;9234;49.344;11.120;2023-07-16T06:02:09;19.00;99.90
18218;DHT22;9234;49.344;11.120;2023-07-16T06:04:38;19.00;99.90
18218;DHT22;9234;49.344;11.120;2023-07-16T06:07:06;19.00;99.90
18218;DHT22;9234;49.344;11.120;2023-07-16T06:09:34;19.10;99.90
18218;DHT22;9234;49.344;11.120;2023-07-16T06:12:03;19.10;99.90
18218;DHT22;9234;49.344;11.120;2023-07-16T06:14:33;19.10;99.90
18218;DHT22;9234;49.344;11.120;2023-07-16T06:17:02;19.20;99.90
18218;DHT22;9234;49.344;11.120;2023-07-16T06:19:30;19.20;99.90
18218;DHT22;9234;49.344;11.120;2023-07-16T06:21:58;19.20;99.90
18218;DHT22;9234;49.344;11.120;2023-07-16T06:24:26;19.20;99.90
18218;DHT22;9234;49.344;11.120;2023-07-16T06:26:55;19.20;99.90
18218;DHT22;9234;49.344;11.120;2023-07-16T06:29:23;19.20;99.90
18218;DHT22;9234;49.344;11.120;2023-07-16T06:31:56;19.20;99.90
18218;DHT22;9234;49.344;11.120;2023-07-16T06:34:26;19.20;99.90
18218;DHT22;9234;49.344;11.120;2023-07-16T06:36:54;19.30;99.90
18218;DHT22;9234;49.344;11.120;2023-07-16T06:39:22;19.30;99.90
18218;DHT22;9234;49.344;11.120;2023-07-16T06:41:51;19.30;99.90
18218;DHT22;9234;49.344;11.120;2023-07-16T06:44:21;19.20;99.90
18218;DHT22;9234;49.344;11.120;2023-07-16T06:46:50;19.30;99.90
18218;DHT22;9234;49.344;11.120;2023-07-16T06:49:21;19.40;99.90
18218;DHT22;9234;49.344;11.120;2023-07-16T06:51:50;19.50;99.90
18218;DHT22;9234;49.344;11.120;2023-07-16T06:54:18;19.60;99.90
18218;DHT22;9234;49.344;11.120;2023-07-16T06:56:46;19.60;99.90
18218;DHT22;9234;49.344;11.120;2023-07-16T06:59:14;19.60;99.90
18218;DHT22;9234;49.344;11.120;2023-07-16T07:01:43;19.70;99.90
18218;DHT22;9234;49.344;11.120;2023-07-16T07:04:11;19.70;99.90
18218;DHT22;9234;49.344;11.120;2023-07-16T07:06:41;19.80;99.90
18218;DHT22;9234;49.344;11.120;2023-07-16T07:09:09;19.80;99.90
18218;DHT22;9234;49.344;11.120;2023-07-16T07:11:37;19.80;99.90
18218;DHT22;9234;49.344;11.120;2023-07-16T07:14:05;19.80;99.90
18218;DHT22;9234;49.344;11.120;2023-07-16T07:16:37;19.80;99.90
18218;DHT22;9234;49.344;11.120;2023-07-16T07:19:07;19.80;99.90
18218;DHT22;9234;49.344;11.120;2023-07-16T07:21:36;19.80;99.90
18218;DHT22;9234;49.344;11.120;2023-07-16T07:24:06;19.80;99.90
18218;DHT22;9234;49.344;11.120;2023-07-16T07:26:34;19.80;99.90
18218;DHT22;9234;49.344;11.120;2023-07-16T07:29:03;19.70;99.90
18218;DHT22;9234;49.344;11.120;2023-07-16T07:31:31;19.70;99.90
18218;DHT22;9234;49.344;11.120;2023-07-16T07:33:59;19.60;99.90
18218;DHT22;9234;49.344;11.120;2023-07-16T07:36:28;19.60;99.90
18218;DHT22;9234;49.344;11.120;2023-07-16T07:38:57;19.70;99.90
18218;DHT22;9234;49.344;11.120;2023-07-16T07:41:26;19.80;99.90
18218;DHT22;9234;49.344;11.120;2023-07-16T07:43:55;19.80;99.90
18218;DHT22;9234;49.344;11.120;2023-07-16T07:46:23;19.90;99.90
18218;DHT22;9234;49.344;11.120;2023-07-16T07:48:52;19.90;99.90
18218;DHT22;9234;49.344;11.120;2023-07-16T07:51:20;20.00;99.90
18218;DHT22;9234;49.344;11.120;2023-07-16T07:53:49;20.10;99.90
18218;DHT22;9234;49.344;11.120;2023-07-16T07:56:17;20.10;99.90
18218;DHT22;9234;49.344;11.120;2023-07-16T07:58:47;20.00;99.90
18218;DHT22;9234;49.344;11.120;2023-07-16T08:01:15;20.10;99.90
18218;DHT22;9234;49.344;11.120;2023-07-16T08:03:43;20.10;99.90
18218;DHT22;9234;49.344;11.120;2023-07-16T08:06:12;20.10;99.90
18218;DHT22;9234;49.344;11.120;2023-07-16T08:08:41;20.20;99.90
18218;DHT22;9234;49.344;11.120;2023-07-16T08:11:09;20.20;99.90
18218;DHT22;9234;49.344;11.120;2023-07-16T08:13:37;20.20;99.90
18218;DHT22;9234;49.344;11.120;2023-07-16T08:16:07;20.20;99.90
18218;DHT22;9234;49.344;11.120;2023-07-16T08:18:36;20.20;99.90
18218;DHT22;9234;49.344;11.120;2023-07-16T08:21:04;20.20;99.90
18218;DHT22;9234;49.344;11.120;2023-07-16T08:23:32;20.20;99.90
18218;DHT22;9234;49.344;11.120;2023-07-16T08:26:01;20.20;99.90
18218;DHT22;9234;49.344;11.120;2023-07-16T08:28:29;20.30;99.90
18218;DHT22;9234;49.344;11.120;2023-07-16T08:30:57;20.30;99.90
18218;DHT22;9234;49.344;11.120;2023-07-16T08:33:27;20.50;99.90
18218;DHT22;9234;49.344;11.120;2023-07-16T08:35:55;20.60;99.90
18218;DHT22;9234;49.344;11.120;2023-07-16T08:38:23;20.80;99.90
18218;DHT22;9234;49.344;11.120;2023-07-16T08:40:52;20.90;99.90
18218;DHT22;9234;49.344;11.120;2023-07-16T08:43:20;21.20;99.90
18218;DHT22;9234;49.344;11.120;2023-07-16T08:45:49;21.30;99.90
18218;DHT22;9234;49.344;11.120;2023-07-16T08:48:18;21.30;99.90
18218;DHT22;9234;49.344;11.120;2023-07-16T08:50:49;21.30;99.90
18218;DHT22;9234;49.344;11.120;2023-07-16T08:53:18;21.40;99.90
18218;DHT22;9234;49.344;11.120;2023-07-16T08:55:47;21.30;99.90
18218;DHT22;9234;49.344;11.120;2023-07-16T08:58:19;21.30;99.90
18218;DHT22;9234;49.344;11.120;2023-07-16T09:00:51;21.20;99.90
18218;DHT22;9234;49.344;11.120;2023-07-16T09:03:20;21.20;99.90
18218;DHT22;9234;49.344;11.120;2023-07-16T09:05:49;21.30;99.90
18218;DHT22;9234;49.344;11.120;2023-07-16T09:08:18;21.40;99.90
18218;DHT22;9234;49.344;11.120;2023-07-16T09:10:53;21.30;99.90
18218;DHT22;9234;49.344;11.120;2023-07-16T09:13:22;21.40;99.90
18218;DHT22;9234;49.344;11.120;2023-07-16T09:15:54;21.50;99.90
18218;DHT22;9234;49.344;11.120;2023-07-16T09:18:25;21.70;99.90
18218;DHT22;9234;49.344;11.120;2023-07-16T09:20:56;21.80;99.90
18218;DHT22;9234;49.344;11.120;2023-07-16T09:23:25;21.90;99.30
18218;DHT22;9234;49.344;11.120;2023-07-16T09:25:54;21.90;99.60
18218;DHT22;9234;49.344;11.120;2023-07-16T09:28:23;22.00;99.90
18218;DHT22;9234;49.344;11.120;2023-07-16T09:30:52;22.20;99.10
18218;DHT22;9234;49.344;11.120;2023-07-16T09:33:22;22.20;98.90
18218;DHT22;9234;49.344;11.120;2023-07-16T09:35:53;22.20;98.30
18218;DHT22;9234;49.344;11.120;2023-07-16T09:38:22;22.20;98.40
18218;DHT22;9234;49.344;11.120;2023-07-16T09:40:52;22.30;98.70
18218;DHT22;9234;49.344;11.120;2023-07-16T09:43:21;22.40;99.10
18218;DHT22;9234;49.344;11.120;2023-07-16T09:45:50;22.50;98.70
18218;DHT22;9234;49.344;11.120;2023-07-16T09:48:18;22.50;98.20
18218;DHT22;9234;49.344;11.120;2023-07-16T09:50:51;22.60;98.40
18218;DHT22;9234;49.344;11.120;2023-07-16T09:53:24;22.60;98.30
18218;DHT22;9234;49.344;11.120;2023-07-16T09:55:55;22.70;97.70
18218;DHT22;9234;49.344;11.120;2023-07-16T09:58:25;22.80;97.10
18218;DHT22;9234;49.344;11.120;2023-07-16T10:00:54;22.90;96.70
18218;DHT22;9234;49.344;11.120;2023-07-16T10:03:24;23.00;96.80
18218;DHT22;9234;49.344;11.120;2023-07-16T10:05:53;23.20;96.20
18218;DHT22;9234;49.344;11.120;2023-07-16T10:08:22;23.40;96.70
18218;DHT22;9234;49.344;11.120;2023-07-16T10:10:54;23.70;96.40
18218;DHT22;9234;49.344;11.120;2023-07-16T10:13:26;23.90;95.90
18218;DHT22;9234;49.344;11.120;2023-07-16T10:15:58;23.90;93.10
18218;DHT22;9234;49.344;11.120;2023-07-16T10:18:29;23.80;94.20
18218;DHT22;9234;49.344;11.120;2023-07-16T10:21:03;24.00;94.50
18218;DHT22;9234;49.344;11.120;2023-07-16T10:23:39;24.30;94.20
18218;DHT22;9234;49.344;11.120;2023-07-16T10:26:12;24.40;93.50
18218;DHT22;9234;49.344;11.120;2023-07-16T10:28:46;24.60;94.00
18218;DHT22;9234;49.344;11.120;2023-07-16T10:31:19;24.90;93.90
18218;DHT22;9234;49.344;11.120;2023-07-16T10:33:59;25.20;93.40
18218;DHT22;9234;49.344;11.120;2023-07-16T10:36:29;25.60;91.80
18218;DHT22;9234;49.344;11.120;2023-07-16T10:39:03;25.80;90.60
18218;DHT22;9234;49.344;11.120;2023-07-16T10:41:32;25.90;91.50
18218;DHT22;9234;49.344;11.120;2023-07-16T10:44:02;26.20;91.50
18218;DHT22;9234;49.344;11.120;2023-07-16T10:46:32;26.30;90.10
18218;DHT22;9234;49.344;11.120;2023-07-16T10:49:01;26.10;89.10
18218;DHT22;9234;49.344;11.120;2023-07-16T10:51:29;26.00;90.10
18218;DHT22;9234;49.344;11.120;2023-07-16T10:53:58;25.80;90.10
18218;DHT22;9234;49.344;11.120;2023-07-16T10:56:27;25.80;90.20
18218;DHT22;9234;49.344;11.120;2023-07-16T10:58:56;25.60;89.20
18218;DHT22;9234;49.344;11.120;2023-07-16T11:01:24;25.30;88.80
18218;DHT22;9234;49.344;11.120;2023-07-16T11:03:52;25.20;89.70
18218;DHT22;9234;49.344;11.120;2023-07-16T11:06:21;25.10;90.20
18218;DHT22;9234;49.344;11.120;2023-07-16T11:08:50;25.20;90.40
18218;DHT22;9234;49.344;11.120;2023-07-16T11:11:29;25.30;89.60
18218;DHT22;9234;49.344;11.120;2023-07-16T11:13:57;25.40;90.00
18218;DHT22;9234;49.344;11.120;2023-07-16T11:16:26;25.40;90.30
18218;DHT22;9234;49.344;11.120;2023-07-16T11:18:54;25.60;90.10
18218;DHT22;9234;49.344;11.120;2023-07-16T11:21:22;25.70;90.10
18218;DHT22;9234;49.344;11.120;2023-07-16T11:23:51;25.90;90.10
18218;DHT22;9234;49.344;11.120;2023-07-16T11:26:19;26.00;87.10
18218;DHT22;9234;49.344;11.120;2023-07-16T11:28:50;26.10;87.20
18218;DHT22;9234;49.344;11.120;2023-07-16T11:31:19;26.10;87.30
18218;DHT22;9234;49.344;11.120;2023-07-16T11:33:50;26.20;87.40
18218;DHT22;9234;49.344;11.120;2023-07-16T11:36:19;26.20;86.10
18218;DHT22;9234;49.344;11.120;2023-07-16T11:38:48;26.10;84.50
18218;DHT22;9234;49.344;11.120;2023-07-16T11:41:20;26.10;86.30
18218;DHT22;9234;49.344;11.120;2023-07-16T11:43:50;26.10;85.80
18218;DHT22;9234;49.344;11.120;2023-07-16T11:46:19;26.00;85.70
18218;DHT22;9234;49.344;11.120;2023-07-16T11:48:48;26.30;86.50
18218;DHT22;9234;49.344;11.120;2023-07-16T11:51:16;26.50;85.10
18218;DHT22;9234;49.344;11.120;2023-07-16T11:53:44;26.90;84.70
18218;DHT22;9234;49.344;11.120;2023-07-16T11:56:13;27.10;82.10
18218;DHT22;9234;49.344;11.120;2023-07-16T11:58:42;27.10;81.80
18218;DHT22;9234;49.344;11.120;2023-07-16T12:01:11;27.00;79.70
18218;DHT22;9234;49.344;11.120;2023-07-16T12:03:41;27.10;80.80
18218;DHT22;9234;49.344;11.120;2023-07-16T12:06:09;27.10;80.60
18218;DHT22;9234;49.344;11.120;2023-07-16T12:08:38;27.30;79.70
18218;DHT22;9234;49.344;11.120;2023-07-16T12:11:06;27.50;79.30
18218;DHT22;9234;49.344;11.120;2023-07-16T12:13:34;27.70;78.90
18218;DHT22;9234;49.344;11.120;2023-07-16T12:16:02;27.70;78.20
18218;DHT22;9234;49.344;11.120;2023-07-16T12:18:33;27.70;78.90
18218;DHT22;9234;49.344;11.120;2023-07-16T12:21:01;27.80;79.70
18218;DHT22;9234;49.344;11.120;2023-07-16T12:23:30;27.90;78.90
18218;DHT22;9234;49.344;11.120;2023-07-16T12:25:58;27.70;75.90
18218;DHT22;9234;49.344;11.120;2023-07-16T12:28:26;27.50;77.30
18218;DHT22;9234;49.344;11.120;2023-07-16T12:30:55;27.40;77.10
18218;DHT22;9234;49.344;11.120;2023-07-16T12:33:23;27.00;75.50
18218;DHT22;9234;49.344;11.120;2023-07-16T12:35:53;26.80;77.50
18218;DHT22;9234;49.344;11.120;2023-07-16T12:38:22;26.90;77.80
18218;DHT22;9234;49.344;11.120;2023-07-16T12:40:50;27.10;79.50
18218;DHT22;9234;49.344;11.120;2023-07-16T12:43:19;27.40;78.90
18218;DHT22;9234;49.344;11.120;2023-07-16T12:45:47;27.70;77.10
18218;DHT22;9234;49.344;11.120;2023-07-16T12:48:15;28.00;77.40
18218;DHT22;9234;49.344;11.120;2023-07-16T12:50:44;28.50;75.20
18218;DHT22;9234;49.344;11.120;2023-07-16T12:53:14;28.90;74.00
18218;DHT22;9234;49.344;11.120;2023-07-16T12:55:43;29.10;71.90
18218;DHT22;9234;49.344;11.120;2023-07-16T12:58:11;29.40;70.00
18218;DHT22;9234;49.344;11.120;2023-07-16T13:00:40;29.40;68.10
18218;DHT22;9234;49.344;11.120;2023-07-16T13:03:11;29.50;67.80
18218;DHT22;9234;49.344;11.120;2023-07-16T13:05:44;29.60;66.60
18218;DHT22;9234;49.344;11.120;2023-07-16T13:08:15;29.90;66.70
18218;DHT22;9234;49.344;11.120;2023-07-16T13:10:43;30.40;66.40
18218;DHT22;9234;49.344;11.120;2023-07-16T13:13:12;30.60;64.80
18218;DHT22;9234;49.344;11.120;2023-07-16T13:15:40;30.90;64.10
18218;DHT22;9234;49.344;11.120;2023-07-16T13:18:09;31.10;62.90
18218;DHT22;9234;49.344;11.120;2023-07-16T13:20:39;31.30;62.80
18218;DHT22;9234;49.344;11.120;2023-07-16T13:23:07;31.40;61.20
18218;DHT22;9234;49.344;11.120;2023-07-16T13:25:37;31.60;61.10
18218;DHT22;9234;49.344;11.120;2023-07-16T13:28:07;31.20;58.90
18218;DHT22;9234;49.344;11.120;2023-07-16T13:30:35;31.50;61.30
18218;DHT22;9234;49.344;11.120;2023-07-16T13:33:04;31.80;61.80
18218;DHT22;9234;49.344;11.120;2023-07-16T13:35:32;32.20;62.60
18218;DHT22;9234;49.344;11.120;2023-07-16T13:38:01;32.50;60.60
18218;DHT22;9234;49.344;11.120;2023-07-16T13:40:29;32.70;59.30
18218;DHT22;9234;49.344;11.120;2023-07-16T13:42:59;32.50;57.40
18218;DHT22;9234;49.344;11.120;2023-07-16T13:45:28;32.20;57.30
18218;DHT22;9234;49.344;11.120;2023-07-16T13:47:56;32.10;57.70
18218;DHT22;9234;49.344;11.120;2023-07-16T13:50:24;32.20;58.50
18218;DHT22;9234;49.344;11.120;2023-07-16T13:52:53;32.30;58.50
18218;DHT22;9234;49.344;11.120;2023-07-16T13:55:21;32.50;59.30
18218;DHT22;9234;49.344;11.120;2023-07-16T13:57:50;32.70;57.80
18218;DHT22;9234;49.344;11.120;2023-07-16T14:00:20;33.00;57.60
18218;DHT22;9234;49.344;11.120;2023-07-16T14:02:49;33.10;56.70
18218;DHT22;9234;49.344;11.120;2023-07-16T14:05:17;33.30;56.90
18218;DHT22;9234;49.344;11.120;2023-07-16T14:07:47;33.60;55.60
18218;DHT22;9234;49.344;11.120;2023-07-16T14:10:16;34.00;54.60
18218;DHT22;9234;49.344;11.120;2023-07-16T14:12:44;34.20;54.40
18218;DHT22;9234;49.344;11.120;2023-07-16T14:15:13;34.10;53.50
18218;DHT22;9234;49.344;11.120;2023-07-16T14:17:46;34.40;54.50
18218;DHT22;9234;49.344;11.120;2023-07-16T14:20:14;34.90;54.70
18218;DHT22;9234;49.344;11.120;2023-07-16T14:22:43;34.70;50.80
18218;DHT22;9234;49.344;11.120;2023-07-16T14:25:11;34.80;52.60
18218;DHT22;9234;49.344;11.120;2023-07-16T14:27:40;34.80;52.20
18218;DHT22;9234;49.344;11.120;2023-07-16T14:30:09;34.80;51.70
18218;DHT22;9234;49.344;11.120;2023-07-16T14:32:38;34.60;50.60
18218;DHT22;9234;49.344;11.120;2023-07-16T14:35:08;34.30;52.00
18218;DHT22;9234;49.344;11.120;2023-07-16T14:37:56;34.00;53.10
18218;DHT22;9234;49.344;11.120;2023-07-16T14:40:25;33.70;52.80
18218;DHT22;9234;49.344;11.120;2023-07-16T14:42:54;33.30;53.10
18218;DHT22;9234;49.344;11.120;2023-07-16T14:45:22;33.10;53.20
18218;DHT22;9234;49.344;11.120;2023-07-16T14:47:52;33.10;53.50
18218;DHT22;9234;49.344;11.120;2023-07-16T14:50:22;33.30;53.50
18218;DHT22;9234;49.344;11.120;2023-07-16T14:52:51;33.80;52.70
18218;DHT22;9234;49.344;11.120;2023-07-16T14:55:19;34.10;54.00
18218;DHT22;9234;49.344;11.120;2023-07-16T14:57:51;34.20;52.10
18218;DHT22;9234;49.344;11.120;2023-07-16T15:00:21;34.00;51.80
18218;DHT22;9234;49.344;11.120;2023-07-16T15:02:50;33.50;52.40
18218;DHT22;9234;49.344;11.120;2023-07-16T15:05:18;33.30;53.00
18218;DHT22;9234;49.344;11.120;2023-07-16T15:07:48;33.10;53.20
18218;DHT22;9234;49.344;11.120;2023-07-16T15:10:16;33.20;54.70
18218;DHT22;9234;49.344;11.120;2023-07-16T15:12:45;33.60;54.10
18218;DHT22;9234;49.344;11.120;2023-07-16T15:15:14;34.10;54.00
18218;DHT22;9234;49.344;11.120;2023-07-16T15:17:42;34.10;51.90
18218;DHT22;9234;49.344;11.120;2023-07-16T15:20:11;33.90;52.10
18218;DHT22;9234;49.344;11.120;2023-07-16T15:22:40;33.70;52.60
18218;DHT22;9234;49.344;11.120;2023-07-16T15:25:10;33.70;52.60
18218;DHT22;9234;49.344;11.120;2023-07-16T15:27:39;33.80;52.20
18218;DHT22;9234;49.344;11.120;2023-07-16T15:30:08;33.70;52.30
18218;DHT22;9234;49.344;11.120;2023-07-16T15:32:38;33.50;53.20
18218;DHT22;9234;49.344;11.120;2023-07-16T15:35:08;33.10;53.30
18218;DHT22;9234;49.344;11.120;2023-07-16T15:37:37;32.30;54.30
18218;DHT22;9234;49.344;11.120;2023-07-16T15:40:14;31.80;55.10
18218;DHT22;9234;49.344;11.120;2023-07-16T15:42:44;31.50;56.00
18218;DHT22;9234;49.344;11.120;2023-07-16T15:45:12;31.00;56.90